createdAt,value
2022-11-01T00:27:07.861Z,12.8
2022-11-01T00:57:09.418Z,16.8
2022-11-01T01:27:10.880Z,10.3
2022-11-01T01:57:12.660Z,10.5
2022-11-01T02:27:18.818Z,9.9
2022-11-01T02:57:22.870Z,10
2022-11-01T03:27:19.435Z,7.5
2022-11-01T03:57:17.675Z,3
2022-11-01T04:27:19.228Z,4.7
2022-11-01T04:57:26.567Z,7.6
2022-11-01T05:27:22.125Z,8.4
2022-11-01T05:57:23.112Z,7.6
2022-11-01T06:27:24.163Z,8.7
2022-11-01T06:57:25.075Z,9.3
2022-11-01T07:27:25.922Z,18
2022-11-01T07:57:27.102Z,11.3
2022-11-01T08:27:30.344Z,12
2022-11-01T08:57:29.000Z,13.2
2022-11-01T09:27:30.394Z,13.1
2022-11-01T09:57:34.931Z,9.2
2022-11-01T10:27:37.388Z,13.1
2022-11-01T10:57:38.742Z,8.4
2022-11-01T11:27:36.847Z,12.4
2022-11-01T11:57:38.940Z,7.4
2022-11-01T12:27:40.600Z,9.3
2022-11-01T12:57:41.810Z,8.8
2022-11-01T13:27:45.296Z,6.7
2022-11-01T13:57:46.322Z,6.3
2022-11-01T14:27:51.650Z,3.7
2022-11-01T14:57:49.117Z,7.1
2022-11-01T15:27:52.203Z,6.3
2022-11-01T15:57:55.609Z,5.6
2022-11-01T16:28:02.529Z,6.3
2022-11-01T16:57:56.864Z,5.3
2022-11-01T17:27:59.026Z,5.8
2022-11-01T17:57:59.277Z,5.2
2022-11-01T18:28:02.731Z,7.4
2022-11-01T18:58:02.648Z,5.5
2022-11-01T19:28:05.620Z,6.1
2022-11-01T19:58:05.884Z,6.3
2022-11-01T20:28:06.918Z,5
2022-11-01T20:58:08.763Z,6.9
2022-11-01T21:28:16.433Z,6.6
2022-11-01T21:58:11.224Z,8.1
2022-11-01T22:28:13.300Z,7.4
2022-11-01T22:58:28.347Z,6
2022-11-01T23:28:15.636Z,5
2022-11-01T23:58:20.850Z,4
